Accedi per prenotare

Caricamento...

Situazione Metar e Taf aeroporto Pisa - Effemeridi Aeroporto Lucca

[Source: ADDS]
METAR
LIRP 170345Z 15005KT 9999 VCTS FEW040 SCT080 19/18 Q1012 NOSIG =
LIRP 162300Z 1700/1724 21010KT 9999 SCT020 SCT040 TEMPO 1700/1704 4000 TSRA FEW015CB BKN020 TEMPO 1709/1713 5000 TSRA FEW015CB BKN030
TAF
LIRP 162300Z 1700/1724 21010KT 9999 SCT020 SCT040 TEMPO 1700/1704 4000 TSRA FEW015CB BKN020 TEMPO 1709/1713 5000 TSRA FEW015CB BKN030 =
SR / SS: 05:02 / 17:26 UTC (Effemeridi LIQL 2021-09-17)